sensor_id;sensor_type;location;lat;lon;timestamp;P1;durP1;ratioP1;P2;durP2;ratioP2
60006;SDS011;45863;50.336;3.536;2023-02-28T00:00:32;12.88;;;6.30;;
60006;SDS011;45863;50.336;3.536;2023-02-28T00:02:57;15.35;;;7.32;;
60006;SDS011;45863;50.336;3.536;2023-02-28T00:05:23;14.23;;;7.90;;
60006;SDS011;45863;50.336;3.536;2023-02-28T00:07:49;13.13;;;7.18;;
60006;SDS011;45863;50.336;3.536;2023-02-28T00:10:16;13.70;;;6.70;;
60006;SDS011;45863;50.336;3.536;2023-02-28T00:12:44;15.52;;;7.90;;
60006;SDS011;45863;50.336;3.536;2023-02-28T00:15:09;14.35;;;7.53;;
60006;SDS011;45863;50.336;3.536;2023-02-28T00:17:35;17.60;;;8.05;;
60006;SDS011;45863;50.336;3.536;2023-02-28T00:20:01;14.35;;;7.88;;
60006;SDS011;45863;50.336;3.536;2023-02-28T00:22:37;13.55;;;7.32;;
60006;SDS011;45863;50.336;3.536;2023-02-28T00:25:03;12.82;;;7.43;;
60006;SDS011;45863;50.336;3.536;2023-02-28T00:27:29;15.55;;;6.95;;
60006;SDS011;45863;50.336;3.536;2023-02-28T00:29:54;16.58;;;7.95;;
60006;SDS011;45863;50.336;3.536;2023-02-28T00:32:19;14.23;;;7.70;;
60006;SDS011;45863;50.336;3.536;2023-02-28T00:34:45;18.95;;;7.95;;
60006;SDS011;45863;50.336;3.536;2023-02-28T00:37:10;16.45;;;7.38;;
60006;SDS011;45863;50.336;3.536;2023-02-28T00:39:37;12.85;;;8.10;;
60006;SDS011;45863;50.336;3.536;2023-02-28T00:42:03;15.13;;;8.40;;
60006;SDS011;45863;50.336;3.536;2023-02-28T00:44:28;15.77;;;7.97;;
60006;SDS011;45863;50.336;3.536;2023-02-28T00:46:54;15.95;;;8.02;;
60006;SDS011;45863;50.336;3.536;2023-02-28T00:49:20;14.75;;;8.15;;
60006;SDS011;45863;50.336;3.536;2023-02-28T00:51:46;16.23;;;8.57;;
60006;SDS011;45863;50.336;3.536;2023-02-28T00:54:11;16.80;;;8.05;;
60006;SDS011;45863;50.336;3.536;2023-02-28T00:56:37;17.30;;;7.95;;
60006;SDS011;45863;50.336;3.536;2023-02-28T00:59:02;14.82;;;8.40;;
60006;SDS011;45863;50.336;3.536;2023-02-28T01:01:27;17.98;;;8.50;;
60006;SDS011;45863;50.336;3.536;2023-02-28T01:03:52;17.15;;;8.32;;
60006;SDS011;45863;50.336;3.536;2023-02-28T01:06:18;19.92;;;9.23;;
60006;SDS011;45863;50.336;3.536;2023-02-28T01:08:43;18.17;;;8.70;;
60006;SDS011;45863;50.336;3.536;2023-02-28T01:11:10;14.30;;;8.35;;
60006;SDS011;45863;50.336;3.536;2023-02-28T01:13:35;15.30;;;8.73;;
60006;SDS011;45863;50.336;3.536;2023-02-28T01:16:01;18.23;;;8.38;;
60006;SDS011;45863;50.336;3.536;2023-02-28T01:18:26;19.50;;;9.13;;
60006;SDS011;45863;50.336;3.536;2023-02-28T01:20:51;14.63;;;8.52;;
60006;SDS011;45863;50.336;3.536;2023-02-28T01:23:18;15.27;;;8.48;;
60006;SDS011;45863;50.336;3.536;2023-02-28T01:25:43;16.13;;;8.50;;
60006;SDS011;45863;50.336;3.536;2023-02-28T01:28:09;15.82;;;8.60;;
60006;SDS011;45863;50.336;3.536;2023-02-28T01:30:34;14.00;;;8.13;;
60006;SDS011;45863;50.336;3.536;2023-02-28T01:32:59;17.30;;;8.55;;
60006;SDS011;45863;50.336;3.536;2023-02-28T01:35:25;15.55;;;9.10;;
60006;SDS011;45863;50.336;3.536;2023-02-28T01:37:50;17.88;;;8.45;;
60006;SDS011;45863;50.336;3.536;2023-02-28T01:40:15;14.15;;;8.13;;
60006;SDS011;45863;50.336;3.536;2023-02-28T01:42:41;13.75;;;7.88;;
60006;SDS011;45863;50.336;3.536;2023-02-28T01:47:50;17.50;;;8.40;;
60006;SDS011;45863;50.336;3.536;2023-02-28T01:50:18;17.27;;;9.18;;
60006;SDS011;45863;50.336;3.536;2023-02-28T01:52:44;17.15;;;8.40;;
60006;SDS011;45863;50.336;3.536;2023-02-28T01:55:10;14.60;;;8.35;;
60006;SDS011;45863;50.336;3.536;2023-02-28T01:57:38;15.90;;;8.73;;
60006;SDS011;45863;50.336;3.536;2023-02-28T02:00:05;15.05;;;8.95;;
60006;SDS011;45863;50.336;3.536;2023-02-28T02:02:32;14.88;;;8.27;;
60006;SDS011;45863;50.336;3.536;2023-02-28T02:04:59;18.95;;;8.75;;
60006;SDS011;45863;50.336;3.536;2023-02-28T02:07:26;13.80;;;8.80;;
60006;SDS011;45863;50.336;3.536;2023-02-28T02:10:06;17.42;;;9.05;;
60006;SDS011;45863;50.336;3.536;2023-02-28T02:15:14;17.90;;;9.73;;
60006;SDS011;45863;50.336;3.536;2023-02-28T02:17:51;18.45;;;9.57;;
60006;SDS011;45863;50.336;3.536;2023-02-28T02:23:05;16.85;;;9.35;;
60006;SDS011;45863;50.336;3.536;2023-02-28T02:28:30;20.73;;;9.70;;
60006;SDS011;45863;50.336;3.536;2023-02-28T02:36:13;19.55;;;9.25;;
60006;SDS011;45863;50.336;3.536;2023-02-28T02:43:52;18.52;;;8.45;;
60006;SDS011;45863;50.336;3.536;2023-02-28T02:47:01;17.30;;;8.95;;
60006;SDS011;45863;50.336;3.536;2023-02-28T02:49:08;17.85;;;9.52;;
60006;SDS011;45863;50.336;3.536;2023-02-28T02:51:35;15.27;;;8.82;;
60006;SDS011;45863;50.336;3.536;2023-02-28T02:54:08;16.92;;;8.65;;
60006;SDS011;45863;50.336;3.536;2023-02-28T02:56:36;18.52;;;9.38;;
60006;SDS011;45863;50.336;3.536;2023-02-28T02:59:04;14.55;;;8.23;;
60006;SDS011;45863;50.336;3.536;2023-02-28T03:01:31;20.88;;;9.57;;
60006;SDS011;45863;50.336;3.536;2023-02-28T03:03:58;15.45;;;9.18;;
60006;SDS011;45863;50.336;3.536;2023-02-28T03:06:24;15.98;;;9.13;;
60006;SDS011;45863;50.336;3.536;2023-02-28T03:08:50;20.65;;;9.90;;
60006;SDS011;45863;50.336;3.536;2023-02-28T03:11:15;18.35;;;9.55;;
60006;SDS011;45863;50.336;3.536;2023-02-28T03:16:23;14.82;;;8.88;;
60006;SDS011;45863;50.336;3.536;2023-02-28T03:18:54;14.93;;;9.57;;
60006;SDS011;45863;50.336;3.536;2023-02-28T03:22:10;15.40;;;9.13;;
60006;SDS011;45863;50.336;3.536;2023-02-28T03:24:14;17.73;;;9.50;;
60006;SDS011;45863;50.336;3.536;2023-02-28T03:26:44;19.10;;;9.45;;
60006;SDS011;45863;50.336;3.536;2023-02-28T03:29:19;16.60;;;8.98;;
60006;SDS011;45863;50.336;3.536;2023-02-28T03:31:48;15.85;;;8.73;;
60006;SDS011;45863;50.336;3.536;2023-02-28T03:36:41;15.77;;;9.55;;
60006;SDS011;45863;50.336;3.536;2023-02-28T03:39:20;11.07;;;6.87;;
60006;SDS011;45863;50.336;3.536;2023-02-28T03:41:52;14.93;;;8.98;;
60006;SDS011;45863;50.336;3.536;2023-02-28T03:44:21;14.50;;;9.02;;
60006;SDS011;45863;50.336;3.536;2023-02-28T03:46:55;16.65;;;9.15;;
60006;SDS011;45863;50.336;3.536;2023-02-28T03:49:25;15.32;;;9.13;;
60006;SDS011;45863;50.336;3.536;2023-02-28T03:51:52;14.40;;;9.75;;
60006;SDS011;45863;50.336;3.536;2023-02-28T03:54:20;17.95;;;9.77;;
60006;SDS011;45863;50.336;3.536;2023-02-28T03:56:55;20.92;;;10.13;;
60006;SDS011;45863;50.336;3.536;2023-02-28T03:59:24;16.95;;;9.77;;
60006;SDS011;45863;50.336;3.536;2023-02-28T04:01:51;17.52;;;10.18;;
60006;SDS011;45863;50.336;3.536;2023-02-28T04:04:17;15.30;;;9.32;;
60006;SDS011;45863;50.336;3.536;2023-02-28T04:06:43;14.35;;;8.80;;
60006;SDS011;45863;50.336;3.536;2023-02-28T04:09:10;15.85;;;10.55;;
60006;SDS011;45863;50.336;3.536;2023-02-28T04:11:45;13.23;;;9.20;;
60006;SDS011;45863;50.336;3.536;2023-02-28T04:14:12;15.88;;;9.68;;
60006;SDS011;45863;50.336;3.536;2023-02-28T04:16:39;17.33;;;10.50;;
60006;SDS011;45863;50.336;3.536;2023-02-28T04:19:05;22.02;;;11.38;;
60006;SDS011;45863;50.336;3.536;2023-02-28T04:21:34;18.80;;;10.05;;
60006;SDS011;45863;50.336;3.536;2023-02-28T04:24:00;19.17;;;10.52;;
60006;SDS011;45863;50.336;3.536;2023-02-28T04:26:32;18.17;;;10.20;;
60006;SDS011;45863;50.336;3.536;2023-02-28T04:28:58;18.85;;;10.65;;
60006;SDS011;45863;50.336;3.536;2023-02-28T04:31:23;23.65;;;10.48;;
60006;SDS011;45863;50.336;3.536;2023-02-28T04:33:48;17.98;;;9.75;;
60006;SDS011;45863;50.336;3.536;2023-02-28T04:36:14;21.30;;;10.13;;
60006;SDS011;45863;50.336;3.536;2023-02-28T04:38:39;20.35;;;10.65;;
60006;SDS011;45863;50.336;3.536;2023-02-28T04:41:05;20.63;;;10.63;;
60006;SDS011;45863;50.336;3.536;2023-02-28T04:43:30;20.73;;;10.05;;
60006;SDS011;45863;50.336;3.536;2023-02-28T04:45:56;20.00;;;11.30;;
60006;SDS011;45863;50.336;3.536;2023-02-28T04:48:23;19.10;;;10.68;;
60006;SDS011;45863;50.336;3.536;2023-02-28T04:50:48;16.67;;;10.23;;
60006;SDS011;45863;50.336;3.536;2023-02-28T04:53:14;22.27;;;11.02;;
60006;SDS011;45863;50.336;3.536;2023-02-28T04:55:39;18.25;;;10.05;;
60006;SDS011;45863;50.336;3.536;2023-02-28T04:58:05;21.48;;;10.15;;
60006;SDS011;45863;50.336;3.536;2023-02-28T05:00:30;16.23;;;10.25;;
60006;SDS011;45863;50.336;3.536;2023-02-28T05:02:56;18.67;;;10.07;;
60006;SDS011;45863;50.336;3.536;2023-02-28T05:05:21;21.83;;;10.73;;
60006;SDS011;45863;50.336;3.536;2023-02-28T05:07:46;19.33;;;10.05;;
60006;SDS011;45863;50.336;3.536;2023-02-28T05:10:12;18.90;;;11.23;;
60006;SDS011;45863;50.336;3.536;2023-02-28T05:12:37;18.60;;;10.02;;
60006;SDS011;45863;50.336;3.536;2023-02-28T05:15:03;20.35;;;10.32;;
60006;SDS011;45863;50.336;3.536;2023-02-28T05:17:29;17.90;;;11.32;;
60006;SDS011;45863;50.336;3.536;2023-02-28T05:19:55;23.40;;;11.52;;
60006;SDS011;45863;50.336;3.536;2023-02-28T05:22:20;20.95;;;11.45;;
60006;SDS011;45863;50.336;3.536;2023-02-28T05:24:45;23.95;;;12.00;;
60006;SDS011;45863;50.336;3.536;2023-02-28T05:27:10;32.25;;;15.50;;
60006;SDS011;45863;50.336;3.536;2023-02-28T05:29:36;117.53;;;46.97;;
60006;SDS011;45863;50.336;3.536;2023-02-28T05:32:07;124.22;;;51.60;;
60006;SDS011;45863;50.336;3.536;2023-02-28T05:34:33;434.52;;;148.52;;
60006;SDS011;45863;50.336;3.536;2023-02-28T05:36:58;161.07;;;58.30;;
60006;SDS011;45863;50.336;3.536;2023-02-28T05:39:23;59.72;;;27.15;;
60006;SDS011;45863;50.336;3.536;2023-02-28T05:41:48;25.75;;;15.32;;
60006;SDS011;45863;50.336;3.536;2023-02-28T05:44:14;25.77;;;16.23;;
60006;SDS011;45863;50.336;3.536;2023-02-28T05:46:40;26.45;;;14.73;;
60006;SDS011;45863;50.336;3.536;2023-02-28T05:49:05;19.85;;;12.23;;
60006;SDS011;45863;50.336;3.536;2023-02-28T05:51:30;20.73;;;13.65;;
60006;SDS011;45863;50.336;3.536;2023-02-28T05:53:58;21.65;;;12.70;;
60006;SDS011;45863;50.336;3.536;2023-02-28T05:56:23;21.42;;;12.55;;
60006;SDS011;45863;50.336;3.536;2023-02-28T05:58:48;23.85;;;12.48;;
60006;SDS011;45863;50.336;3.536;2023-02-28T06:01:21;23.83;;;11.88;;
60006;SDS011;45863;50.336;3.536;2023-02-28T06:03:47;20.80;;;11.80;;
60006;SDS011;45863;50.336;3.536;2023-02-28T06:06:12;21.08;;;13.07;;
60006;SDS011;45863;50.336;3.536;2023-02-28T06:08:38;22.58;;;11.90;;
60006;SDS011;45863;50.336;3.536;2023-02-28T06:11:03;20.80;;;13.00;;
60006;SDS011;45863;50.336;3.536;2023-02-28T06:13:29;26.48;;;14.15;;
60006;SDS011;45863;50.336;3.536;2023-02-28T06:15:54;20.50;;;12.38;;
60006;SDS011;45863;50.336;3.536;2023-02-28T06:18:20;25.10;;;12.43;;
60006;SDS011;45863;50.336;3.536;2023-02-28T06:20:51;22.23;;;12.68;;
60006;SDS011;45863;50.336;3.536;2023-02-28T06:23:18;25.00;;;13.02;;
60006;SDS011;45863;50.336;3.536;2023-02-28T06:25:44;24.88;;;14.00;;
60006;SDS011;45863;50.336;3.536;2023-02-28T06:28:10;26.27;;;14.85;;
60006;SDS011;45863;50.336;3.536;2023-02-28T06:30:36;24.80;;;13.60;;
60006;SDS011;45863;50.336;3.536;2023-02-28T06:33:01;24.23;;;13.60;;
60006;SDS011;45863;50.336;3.536;2023-02-28T06:35:27;24.30;;;14.25;;
60006;SDS011;45863;50.336;3.536;2023-02-28T06:37:52;23.58;;;14.07;;
60006;SDS011;45863;50.336;3.536;2023-02-28T06:40:17;27.08;;;15.27;;
60006;SDS011;45863;50.336;3.536;2023-02-28T06:42:42;25.00;;;14.07;;
60006;SDS011;45863;50.336;3.536;2023-02-28T06:45:08;24.00;;;14.35;;
60006;SDS011;45863;50.336;3.536;2023-02-28T06:47:34;28.77;;;14.32;;
60006;SDS011;45863;50.336;3.536;2023-02-28T06:50:00;23.42;;;13.98;;
60006;SDS011;45863;50.336;3.536;2023-02-28T06:52:26;27.35;;;13.95;;
60006;SDS011;45863;50.336;3.536;2023-02-28T06:54:51;26.42;;;14.70;;
60006;SDS011;45863;50.336;3.536;2023-02-28T06:57:24;26.83;;;16.13;;
60006;SDS011;45863;50.336;3.536;2023-02-28T06:59:50;26.80;;;14.13;;
60006;SDS011;45863;50.336;3.536;2023-02-28T07:02:15;23.08;;;14.07;;
60006;SDS011;45863;50.336;3.536;2023-02-28T07:04:40;28.48;;;16.00;;
60006;SDS011;45863;50.336;3.536;2023-02-28T07:07:09;27.23;;;15.13;;
60006;SDS011;45863;50.336;3.536;2023-02-28T07:09:34;27.27;;;14.48;;
60006;SDS011;45863;50.336;3.536;2023-02-28T07:12:00;27.27;;;15.18;;
60006;SDS011;45863;50.336;3.536;2023-02-28T07:14:25;28.42;;;14.90;;
60006;SDS011;45863;50.336;3.536;2023-02-28T07:16:51;24.98;;;14.40;;
60006;SDS011;45863;50.336;3.536;2023-02-28T07:19:16;25.42;;;14.30;;
60006;SDS011;45863;50.336;3.536;2023-02-28T07:21:41;26.50;;;14.63;;
60006;SDS011;45863;50.336;3.536;2023-02-28T07:24:06;27.58;;;15.57;;
60006;SDS011;45863;50.336;3.536;2023-02-28T07:26:32;25.00;;;13.98;;
60006;SDS011;45863;50.336;3.536;2023-02-28T07:28:59;25.73;;;14.50;;
60006;SDS011;45863;50.336;3.536;2023-02-28T07:31:24;29.25;;;12.52;;
60006;SDS011;45863;50.336;3.536;2023-02-28T07:33:50;21.95;;;11.82;;
60006;SDS011;45863;50.336;3.536;2023-02-28T07:36:16;23.00;;;11.38;;
60006;SDS011;45863;50.336;3.536;2023-02-28T07:38:44;19.65;;;11.68;;
60006;SDS011;45863;50.336;3.536;2023-02-28T07:41:11;22.17;;;11.77;;
60006;SDS011;45863;50.336;3.536;2023-02-28T07:43:36;20.65;;;10.75;;
60006;SDS011;45863;50.336;3.536;2023-02-28T07:46:03;20.60;;;12.55;;
60006;SDS011;45863;50.336;3.536;2023-02-28T07:48:28;22.75;;;11.68;;
60006;SDS011;45863;50.336;3.536;2023-02-28T07:50:54;18.88;;;12.02;;
60006;SDS011;45863;50.336;3.536;2023-02-28T07:53:20;25.23;;;12.25;;
60006;SDS011;45863;50.336;3.536;2023-02-28T07:55:45;21.40;;;12.27;;
60006;SDS011;45863;50.336;3.536;2023-02-28T07:58:11;21.30;;;11.35;;
60006;SDS011;45863;50.336;3.536;2023-02-28T08:00:36;22.15;;;11.68;;
60006;SDS011;45863;50.336;3.536;2023-02-28T08:03:02;26.48;;;12.80;;
60006;SDS011;45863;50.336;3.536;2023-02-28T08:05:27;19.45;;;11.20;;
60006;SDS011;45863;50.336;3.536;2023-02-28T08:07:52;20.25;;;11.23;;
60006;SDS011;45863;50.336;3.536;2023-02-28T08:10:18;22.60;;;11.38;;
60006;SDS011;45863;50.336;3.536;2023-02-28T08:12:43;22.77;;;12.40;;
60006;SDS011;45863;50.336;3.536;2023-02-28T08:15:09;19.48;;;11.02;;
60006;SDS011;45863;50.336;3.536;2023-02-28T08:17:34;20.65;;;11.60;;
60006;SDS011;45863;50.336;3.536;2023-02-28T08:20:04;19.25;;;11.38;;
60006;SDS011;45863;50.336;3.536;2023-02-28T08:22:29;18.45;;;11.18;;
60006;SDS011;45863;50.336;3.536;2023-02-28T08:24:54;20.95;;;11.80;;
60006;SDS011;45863;50.336;3.536;2023-02-28T08:27:20;19.13;;;10.25;;
60006;SDS011;45863;50.336;3.536;2023-02-28T08:29:45;19.60;;;11.55;;
60006;SDS011;45863;50.336;3.536;2023-02-28T08:32:10;19.42;;;11.43;;
60006;SDS011;45863;50.336;3.536;2023-02-28T08:34:36;19.15;;;11.18;;
60006;SDS011;45863;50.336;3.536;2023-02-28T08:37:03;21.85;;;10.68;;
60006;SDS011;45863;50.336;3.536;2023-02-28T08:39:28;19.27;;;9.88;;
60006;SDS011;45863;50.336;3.536;2023-02-28T08:41:54;16.23;;;9.50;;
60006;SDS011;45863;50.336;3.536;2023-02-28T08:44:19;18.58;;;9.52;;
60006;SDS011;45863;50.336;3.536;2023-02-28T08:46:44;16.37;;;9.53;;
60006;SDS011;45863;50.336;3.536;2023-02-28T08:49:09;14.90;;;8.67;;
60006;SDS011;45863;50.336;3.536;2023-02-28T08:51:35;15.10;;;8.02;;
60006;SDS011;45863;50.336;3.536;2023-02-28T08:54:00;12.55;;;7.75;;
60006;SDS011;45863;50.336;3.536;2023-02-28T08:56:26;11.35;;;7.57;;
60006;SDS011;45863;50.336;3.536;2023-02-28T08:58:51;17.08;;;8.45;;
60006;SDS011;45863;50.336;3.536;2023-02-28T09:01:21;13.15;;;8.02;;
60006;SDS011;45863;50.336;3.536;2023-02-28T09:03:47;16.55;;;8.40;;
60006;SDS011;45863;50.336;3.536;2023-02-28T09:06:13;11.25;;;7.22;;
60006;SDS011;45863;50.336;3.536;2023-02-28T09:08:39;12.38;;;7.70;;
60006;SDS011;45863;50.336;3.536;2023-02-28T09:11:04;11.93;;;8.07;;
60006;SDS011;45863;50.336;3.536;2023-02-28T09:13:29;11.80;;;6.97;;
60006;SDS011;45863;50.336;3.536;2023-02-28T09:15:57;11.80;;;8.07;;
60006;SDS011;45863;50.336;3.536;2023-02-28T09:18:22;11.60;;;6.88;;
60006;SDS011;45863;50.336;3.536;2023-02-28T09:20:47;9.15;;;6.38;;
60006;SDS011;45863;50.336;3.536;2023-02-28T09:23:13;13.15;;;6.60;;
60006;SDS011;45863;50.336;3.536;2023-02-28T09:25:44;13.55;;;6.68;;
60006;SDS011;45863;50.336;3.536;2023-02-28T09:28:10;9.15;;;6.20;;
60006;SDS011;45863;50.336;3.536;2023-02-28T09:30:36;9.60;;;5.82;;
60006;SDS011;45863;50.336;3.536;2023-02-28T09:33:01;8.98;;;5.57;;
60006;SDS011;45863;50.336;3.536;2023-02-28T09:35:26;10.03;;;5.90;;
60006;SDS011;45863;50.336;3.536;2023-02-28T09:37:52;9.05;;;4.97;;
60006;SDS011;45863;50.336;3.536;2023-02-28T09:40:17;12.13;;;6.05;;
60006;SDS011;45863;50.336;3.536;2023-02-28T09:42:45;9.82;;;5.47;;
60006;SDS011;45863;50.336;3.536;2023-02-28T09:45:19;9.80;;;5.47;;
60006;SDS011;45863;50.336;3.536;2023-02-28T09:47:45;9.43;;;5.28;;
60006;SDS011;45863;50.336;3.536;2023-02-28T09:50:16;8.80;;;4.95;;
60006;SDS011;45863;50.336;3.536;2023-02-28T09:52:42;9.15;;;4.90;;
60006;SDS011;45863;50.336;3.536;2023-02-28T09:57:53;7.30;;;4.10;;
60006;SDS011;45863;50.336;3.536;2023-02-28T10:00:39;7.60;;;4.15;;
60006;SDS011;45863;50.336;3.536;2023-02-28T10:08:42;7.70;;;4.93;;
60006;SDS011;45863;50.336;3.536;2023-02-28T10:11:11;8.93;;;4.80;;
60006;SDS011;45863;50.336;3.536;2023-02-28T10:16:05;6.38;;;3.92;;
60006;SDS011;45863;50.336;3.536;2023-02-28T10:18:35;7.43;;;4.90;;
60006;SDS011;45863;50.336;3.536;2023-02-28T10:21:02;9.23;;;4.65;;
60006;SDS011;45863;50.336;3.536;2023-02-28T10:23:34;8.32;;;4.72;;
60006;SDS011;45863;50.336;3.536;2023-02-28T10:26:01;7.90;;;4.72;;
60006;SDS011;45863;50.336;3.536;2023-02-28T10:28:30;7.50;;;4.60;;
60006;SDS011;45863;50.336;3.536;2023-02-28T10:30:56;8.13;;;4.10;;
60006;SDS011;45863;50.336;3.536;2023-02-28T10:33:27;6.05;;;4.00;;
60006;SDS011;45863;50.336;3.536;2023-02-28T10:35:53;7.22;;;3.45;;
60006;SDS011;45863;50.336;3.536;2023-02-28T10:38:20;7.72;;;3.60;;
60006;SDS011;45863;50.336;3.536;2023-02-28T10:40:46;5.80;;;3.65;;
60006;SDS011;45863;50.336;3.536;2023-02-28T10:45:40;11.20;;;3.65;;
60006;SDS011;45863;50.336;3.536;2023-02-28T10:50:44;6.27;;;3.10;;
60006;SDS011;45863;50.336;3.536;2023-02-28T10:55:35;7.07;;;3.43;;
60006;SDS011;45863;50.336;3.536;2023-02-28T10:58:00;7.97;;;3.40;;
60006;SDS011;45863;50.336;3.536;2023-02-28T11:00:25;6.27;;;3.57;;
60006;SDS011;45863;50.336;3.536;2023-02-28T11:02:56;8.52;;;4.10;;
60006;SDS011;45863;50.336;3.536;2023-02-28T11:07:53;7.95;;;3.55;;
60006;SDS011;45863;50.336;3.536;2023-02-28T11:10:19;7.80;;;3.30;;
60006;SDS011;45863;50.336;3.536;2023-02-28T11:12:46;6.57;;;3.58;;
60006;SDS011;45863;50.336;3.536;2023-02-28T11:17:52;7.07;;;3.80;;
60006;SDS011;45863;50.336;3.536;2023-02-28T11:20:20;7.97;;;3.83;;
60006;SDS011;45863;50.336;3.536;2023-02-28T11:22:46;7.15;;;3.47;;
60006;SDS011;45863;50.336;3.536;2023-02-28T11:25:25;8.25;;;3.40;;
60006;SDS011;45863;50.336;3.536;2023-02-28T11:27:52;7.57;;;3.72;;
60006;SDS011;45863;50.336;3.536;2023-02-28T11:30:31;7.03;;;3.90;;
60006;SDS011;45863;50.336;3.536;2023-02-28T11:32:57;5.97;;;3.03;;
60006;SDS011;45863;50.336;3.536;2023-02-28T11:37:50;6.60;;;3.38;;
60006;SDS011;45863;50.336;3.536;2023-02-28T11:40:17;5.70;;;3.30;;
60006;SDS011;45863;50.336;3.536;2023-02-28T11:48:27;7.30;;;3.47;;
60006;SDS011;45863;50.336;3.536;2023-02-28T11:53:31;7.03;;;3.33;;
60006;SDS011;45863;50.336;3.536;2023-02-28T11:58:26;7.20;;;3.37;;
60006;SDS011;45863;50.336;3.536;2023-02-28T12:28:56;6.00;;;2.80;;
60006;SDS011;45863;50.336;3.536;2023-02-28T12:31:24;5.78;;;2.67;;
60006;SDS011;45863;50.336;3.536;2023-02-28T12:33:51;5.93;;;3.03;;
60006;SDS011;45863;50.336;3.536;2023-02-28T12:36:18;6.88;;;3.85;;
60006;SDS011;45863;50.336;3.536;2023-02-28T12:41:40;5.03;;;2.40;;
60006;SDS011;45863;50.336;3.536;2023-02-28T12:44:08;4.80;;;2.53;;
60006;SDS011;45863;50.336;3.536;2023-02-28T12:46:36;4.85;;;2.70;;
60006;SDS011;45863;50.336;3.536;2023-02-28T12:49:05;4.85;;;2.47;;
60006;SDS011;45863;50.336;3.536;2023-02-28T12:51:31;6.32;;;2.67;;
60006;SDS011;45863;50.336;3.536;2023-02-28T12:59:04;7.33;;;3.17;;
60006;SDS011;45863;50.336;3.536;2023-02-28T13:09:27;5.45;;;3.25;;
60006;SDS011;45863;50.336;3.536;2023-02-28T13:11:54;5.57;;;3.17;;
60006;SDS011;45863;50.336;3.536;2023-02-28T13:19:39;6.53;;;3.17;;
60006;SDS011;45863;50.336;3.536;2023-02-28T13:22:05;5.53;;;3.10;;
60006;SDS011;45863;50.336;3.536;2023-02-28T13:24:45;5.85;;;3.15;;
60006;SDS011;45863;50.336;3.536;2023-02-28T13:27:12;6.60;;;3.22;;
60006;SDS011;45863;50.336;3.536;2023-02-28T13:29:49;8.38;;;3.78;;
60006;SDS011;45863;50.336;3.536;2023-02-28T13:34:40;8.15;;;3.65;;
60006;SDS011;45863;50.336;3.536;2023-02-28T13:42:22;13.40;;;3.63;;
60006;SDS011;45863;50.336;3.536;2023-02-28T13:52:56;5.63;;;3.17;;
60006;SDS011;45863;50.336;3.536;2023-02-28T13:55:25;7.03;;;3.88;;
60006;SDS011;45863;50.336;3.536;2023-02-28T14:00:20;9.17;;;3.27;;
60006;SDS011;45863;50.336;3.536;2023-02-28T14:05:13;7.07;;;3.53;;
60006;SDS011;45863;50.336;3.536;2023-02-28T14:07:50;6.93;;;3.45;;
60006;SDS011;45863;50.336;3.536;2023-02-28T14:11:03;6.18;;;3.20;;
60006;SDS011;45863;50.336;3.536;2023-02-28T14:20:48;7.18;;;3.33;;
60006;SDS011;45863;50.336;3.536;2023-02-28T14:28:18;7.60;;;3.80;;
60006;SDS011;45863;50.336;3.536;2023-02-28T14:35:55;7.65;;;3.50;;
60006;SDS011;45863;50.336;3.536;2023-02-28T14:38:25;6.80;;;3.45;;
60006;SDS011;45863;50.336;3.536;2023-02-28T14:40:53;8.10;;;4.00;;
60006;SDS011;45863;50.336;3.536;2023-02-28T14:43:21;7.47;;;3.65;;
60006;SDS011;45863;50.336;3.536;2023-02-28T14:45:49;7.88;;;3.55;;
60006;SDS011;45863;50.336;3.536;2023-02-28T14:48:15;6.57;;;3.47;;
60006;SDS011;45863;50.336;3.536;2023-02-28T14:50:41;6.80;;;3.20;;
60006;SDS011;45863;50.336;3.536;2023-02-28T14:53:15;7.90;;;3.60;;
60006;SDS011;45863;50.336;3.536;2023-02-28T14:55:46;7.30;;;3.90;;
60006;SDS011;45863;50.336;3.536;2023-02-28T14:58:25;6.18;;;3.55;;
60006;SDS011;45863;50.336;3.536;2023-02-28T15:00:52;7.07;;;3.67;;
60006;SDS011;45863;50.336;3.536;2023-02-28T15:08:15;8.30;;;3.83;;
60006;SDS011;45863;50.336;3.536;2023-02-28T15:10:44;7.97;;;3.50;;
60006;SDS011;45863;50.336;3.536;2023-02-28T15:13:12;5.93;;;3.33;;
60006;SDS011;45863;50.336;3.536;2023-02-28T15:15:56;7.68;;;3.30;;
60006;SDS011;45863;50.336;3.536;2023-02-28T15:20:48;8.77;;;3.78;;
60006;SDS011;45863;50.336;3.536;2023-02-28T15:23:14;9.20;;;3.65;;
60006;SDS011;45863;50.336;3.536;2023-02-28T15:25:40;7.57;;;3.20;;
60006;SDS011;45863;50.336;3.536;2023-02-28T15:28:09;10.40;;;4.20;;
60006;SDS011;45863;50.336;3.536;2023-02-28T15:30:35;5.90;;;3.50;;
60006;SDS011;45863;50.336;3.536;2023-02-28T15:33:06;7.80;;;3.78;;
60006;SDS011;45863;50.336;3.536;2023-02-28T15:35:36;6.82;;;3.97;;
60006;SDS011;45863;50.336;3.536;2023-02-28T15:40:46;8.90;;;3.58;;
60006;SDS011;45863;50.336;3.536;2023-02-28T15:43:28;6.88;;;3.70;;
60006;SDS011;45863;50.336;3.536;2023-02-28T15:45:58;6.72;;;3.70;;
60006;SDS011;45863;50.336;3.536;2023-02-28T15:48:29;6.10;;;3.20;;
60006;SDS011;45863;50.336;3.536;2023-02-28T15:53:34;8.32;;;3.97;;
60006;SDS011;45863;50.336;3.536;2023-02-28T15:56:13;9.75;;;4.40;;
60006;SDS011;45863;50.336;3.536;2023-02-28T15:58:41;8.52;;;3.75;;
60006;SDS011;45863;50.336;3.536;2023-02-28T16:01:15;8.45;;;4.00;;
60006;SDS011;45863;50.336;3.536;2023-02-28T16:03:46;8.82;;;3.85;;
60006;SDS011;45863;50.336;3.536;2023-02-28T16:08:41;9.02;;;4.10;;
60006;SDS011;45863;50.336;3.536;2023-02-28T16:11:08;8.77;;;4.05;;
60006;SDS011;45863;50.336;3.536;2023-02-28T16:13:33;7.63;;;3.72;;
60006;SDS011;45863;50.336;3.536;2023-02-28T16:15:58;7.50;;;3.88;;
60006;SDS011;45863;50.336;3.536;2023-02-28T16:18:26;7.80;;;4.30;;
60006;SDS011;45863;50.336;3.536;2023-02-28T16:20:51;7.70;;;4.13;;
60006;SDS011;45863;50.336;3.536;2023-02-28T16:23:17;8.68;;;3.90;;
60006;SDS011;45863;50.336;3.536;2023-02-28T16:25:42;7.10;;;4.10;;
60006;SDS011;45863;50.336;3.536;2023-02-28T16:28:22;6.40;;;3.90;;
60006;SDS011;45863;50.336;3.536;2023-02-28T16:30:50;10.45;;;4.43;;
60006;SDS011;45863;50.336;3.536;2023-02-28T16:33:16;10.23;;;4.78;;
60006;SDS011;45863;50.336;3.536;2023-02-28T16:35:41;8.68;;;4.43;;
60006;SDS011;45863;50.336;3.536;2023-02-28T16:38:07;9.73;;;4.65;;
60006;SDS011;45863;50.336;3.536;2023-02-28T16:40:33;7.35;;;4.00;;
60006;SDS011;45863;50.336;3.536;2023-02-28T16:42:59;9.38;;;4.15;;
60006;SDS011;45863;50.336;3.536;2023-02-28T16:45:26;8.13;;;4.32;;
60006;SDS011;45863;50.336;3.536;2023-02-28T16:47:52;13.43;;;4.15;;
60006;SDS011;45863;50.336;3.536;2023-02-28T16:50:20;6.55;;;3.90;;
60006;SDS011;45863;50.336;3.536;2023-02-28T16:52:46;7.28;;;3.88;;
60006;SDS011;45863;50.336;3.536;2023-02-28T16:55:12;8.10;;;3.88;;
60006;SDS011;45863;50.336;3.536;2023-02-28T16:57:38;6.32;;;4.03;;
60006;SDS011;45863;50.336;3.536;2023-02-28T17:00:05;8.52;;;4.00;;
60006;SDS011;45863;50.336;3.536;2023-02-28T17:02:31;5.90;;;3.35;;
60006;SDS011;45863;50.336;3.536;2023-02-28T17:04:56;8.50;;;4.53;;
60006;SDS011;45863;50.336;3.536;2023-02-28T17:07:21;8.68;;;4.05;;
60006;SDS011;45863;50.336;3.536;2023-02-28T17:09:47;8.45;;;4.63;;
60006;SDS011;45863;50.336;3.536;2023-02-28T17:12:15;8.35;;;4.47;;
60006;SDS011;45863;50.336;3.536;2023-02-28T17:14:43;11.70;;;4.70;;
60006;SDS011;45863;50.336;3.536;2023-02-28T17:17:20;11.25;;;4.05;;
60006;SDS011;45863;50.336;3.536;2023-02-28T17:19:46;11.57;;;4.20;;
60006;SDS011;45863;50.336;3.536;2023-02-28T17:22:11;10.48;;;4.20;;